Time;durP1;ratioP1;P1;durP2;ratioP2;P2;SDS_P1;SDS_P2;PMS_P1;PMS_P2;Temp;Humidity;BMP_temperature;BMP_pressure;BME280_temperature;BME280_humidity;BME280_pressure;Samples;Min_cycle;Max_cycle;Signal;HPM_P1;HPM_P2
2021/07/24 00:01:19;;;;;;;18.37;12.55;;;15.60;99.90;;;;;;1851184;77;21505;-71
2021/07/24 00:03:46;;;;;;;18.32;12.58;;;15.60;99.90;;;;;;1864135;77;21099;-71
2021/07/24 00:06:14;;;;;;;20.77;12.80;;;15.60;99.90;;;;;;1857325;77;21094;-70
2021/07/24 00:08:42;;;;;;;19.45;12.78;;;15.60;99.90;;;;;;1857642;76;21185;-71
2021/07/24 00:11:10;;;;;;;20.15;13.00;;;15.50;99.90;;;;;;1856741;77;21051;-71
2021/07/24 00:13:40;;;;;;;19.95;12.40;;;15.50;99.90;;;;;;1864073;77;21135;-71
2021/07/24 00:16:07;;;;;;;21.45;13.35;;;15.50;99.90;;;;;;1865804;77;21137;-71
2021/07/24 00:18:35;;;;;;;22.52;14.43;;;15.50;99.90;;;;;;1862854;77;21094;-70
2021/07/24 00:21:03;;;;;;;19.23;14.20;;;15.50;99.90;;;;;;1855578;77;21102;-71
2021/07/24 00:23:31;;;;;;;23.75;14.43;;;15.50;99.90;;;;;;1865745;77;21195;-70
2021/07/24 00:25:58;;;;;;;21.20;13.90;;;15.40;99.90;;;;;;1841641;76;21715;-71
2021/07/24 00:28:26;;;;;;;23.73;14.47;;;15.40;99.90;;;;;;1834930;78;21624;-73
2021/07/24 00:30:53;;;;;;;19.37;13.72;;;15.40;99.90;;;;;;1840834;77;21159;-72
2021/07/24 00:33:21;;;;;;;21.93;15.10;;;15.40;99.90;;;;;;1823284;78;21106;-72
2021/07/24 00:35:48;;;;;;;23.42;14.83;;;15.40;99.90;;;;;;1875666;76;21741;-72
2021/07/24 00:38:16;;;;;;;22.75;16.10;;;15.40;99.90;;;;;;1867574;76;21739;-72
2021/07/24 00:40:46;;;;;;;23.02;15.05;;;15.40;99.90;;;;;;1850185;76;21141;-70
2021/07/24 00:43:14;;;;;;;22.87;14.98;;;15.40;99.90;;;;;;1848598;76;21165;-72
2021/07/24 00:45:48;;;;;;;22.80;15.95;;;15.40;99.90;;;;;;1846652;77;21193;-72
2021/07/24 00:48:18;;;;;;;24.07;15.28;;;15.40;99.90;;;;;;1851800;76;21123;-72
2021/07/24 00:50:48;;;;;;;24.32;15.00;;;15.40;99.90;;;;;;1845883;76;21211;-72
2021/07/24 00:53:24;;;;;;;27.42;16.40;;;15.30;99.90;;;;;;1854137;76;21062;-71
2021/07/24 00:55:52;;;;;;;24.23;16.20;;;15.30;99.90;;;;;;1879300;76;21093;-71
2021/07/24 00:58:28;;;;;;;24.95;15.93;;;15.30;99.90;;;;;;1863283;76;21163;-71
2021/07/24 01:00:56;;;;;;;21.95;15.68;;;15.30;99.90;;;;;;1878888;76;21043;-71
2021/07/24 01:03:23;;;;;;;22.15;15.60;;;15.30;99.90;;;;;;1874727;76;21030;-72
2021/07/24 01:05:53;;;;;;;25.02;16.67;;;15.30;99.90;;;;;;1848617;76;21140;-72
2021/07/24 01:08:21;;;;;;;25.48;16.40;;;15.20;99.90;;;;;;1847539;76;21059;-72
2021/07/24 01:10:50;;;;;;;22.73;15.83;;;15.20;99.90;;;;;;1848994;76;21499;-72
2021/07/24 01:13:18;;;;;;;21.12;15.25;;;15.10;99.90;;;;;;1857846;77;21395;-72
2021/07/24 01:15:47;;;;;;;21.87;15.88;;;15.20;99.90;;;;;;1867134;77;21078;-71
2021/07/24 01:18:15;;;;;;;26.60;16.42;;;15.20;99.90;;;;;;1867063;77;21063;-71
2021/07/24 01:20:44;;;;;;;25.57;16.75;;;15.10;99.90;;;;;;1867248;77;21067;-72
2021/07/24 01:23:13;;;;;;;25.17;16.57;;;15.10;99.90;;;;;;1864921;77;21591;-71
2021/07/24 01:25:49;;;;;;;21.10;15.58;;;15.10;99.90;;;;;;1862031;77;21102;-70
2021/07/24 01:28:35;;;;;;;24.30;16.52;;;15.00;99.90;;;;;;1847738;77;21597;-71
2021/07/24 01:31:05;;;;;;;25.17;16.77;;;15.00;99.90;;;;;;1831432;77;21674;-71
2021/07/24 01:33:34;;;;;;;23.55;16.45;;;15.00;99.90;;;;;;1838846;77;21187;-71
2021/07/24 01:36:01;;;;;;;22.93;16.40;;;15.00;99.90;;;;;;1835485;78;21627;-71
2021/07/24 01:38:30;;;;;;;23.92;15.78;;;14.90;99.90;;;;;;1835146;77;21101;-70
2021/07/24 01:40:58;;;;;;;24.77;16.60;;;14.90;99.90;;;;;;1846455;77;21191;-71
2021/07/24 01:43:25;;;;;;;27.50;18.12;;;14.90;99.90;;;;;;1845911;77;21548;-71
2021/07/24 01:45:53;;;;;;;22.85;16.05;;;14.90;99.90;;;;;;1835596;77;21087;-71
2021/07/24 01:48:33;;;;;;;24.02;16.23;;;14.90;99.90;;;;;;1835447;77;21580;-72
2021/07/24 01:53:37;;;;;;;22.77;15.78;;;14.80;99.90;;;;;;1835956;77;21104;-71
2021/07/24 01:56:09;;;;;;;25.32;16.40;;;14.80;99.90;;;;;;1835518;78;21563;-71
2021/07/24 01:58:37;;;;;;;19.57;14.47;;;14.80;99.90;;;;;;1859907;77;21142;-71
2021/07/24 02:01:07;;;;;;;20.45;14.98;;;14.70;99.90;;;;;;1866676;77;21140;-71
2021/07/24 02:03:40;;;;;;;22.70;14.63;;;14.80;99.90;;;;;;1865051;77;21036;-71
2021/07/24 02:06:11;;;;;;;21.85;14.73;;;14.70;99.90;;;;;;1865736;76;21164;-71
2021/07/24 02:08:41;;;;;;;18.37;13.80;;;14.70;99.90;;;;;;1865207;76;21106;-71
2021/07/24 02:11:08;;;;;;;20.50;13.95;;;14.70;99.90;;;;;;1866675;76;21544;-71
2021/07/24 02:13:36;;;;;;;20.77;14.45;;;14.70;99.90;;;;;;1866870;76;21164;-71
2021/07/24 02:16:06;;;;;;;21.57;14.15;;;14.60;99.90;;;;;;1864456;77;21078;-71
2021/07/24 02:18:34;;;;;;;20.72;13.48;;;14.50;99.90;;;;;;1866786;77;21196;-72
2021/07/24 02:21:03;;;;;;;20.72;14.30;;;14.60;99.90;;;;;;1844540;77;21627;-71
2021/07/24 02:23:31;;;;;;;19.17;12.88;;;14.60;99.90;;;;;;1837959;77;21528;-71
2021/07/24 02:25:58;;;;;;;16.93;12.13;;;14.50;99.90;;;;;;1835923;78;21055;-70
2021/07/24 02:28:26;;;;;;;17.32;12.73;;;14.50;99.90;;;;;;1837462;77;21229;-71
2021/07/24 02:30:53;;;;;;;17.67;12.43;;;14.50;99.90;;;;;;1835523;78;21291;-71
2021/07/24 02:33:21;;;;;;;18.82;12.60;;;14.50;99.90;;;;;;1863971;77;21485;-71
2021/07/24 02:35:49;;;;;;;15.98;11.97;;;14.50;99.90;;;;;;1866289;76;21172;-71
2021/07/24 02:38:17;;;;;;;18.60;13.43;;;14.40;99.90;;;;;;1864869;76;21146;-71
2021/07/24 02:40:45;;;;;;;18.45;11.85;;;14.40;99.90;;;;;;1865917;77;21086;-71
2021/07/24 02:43:12;;;;;;;18.85;13.38;;;14.40;99.90;;;;;;1866555;77;21102;-72
2021/07/24 02:45:40;;;;;;;17.20;11.57;;;14.40;99.90;;;;;;1858399;77;21157;-71
2021/07/24 02:48:07;;;;;;;16.93;11.95;;;14.30;99.90;;;;;;1850118;77;21583;-71
2021/07/24 02:50:35;;;;;;;18.57;12.60;;;14.40;99.90;;;;;;1866384;77;21102;-72
2021/07/24 02:53:02;;;;;;;21.85;12.58;;;14.30;99.90;;;;;;1866615;77;21090;-72
2021/07/24 02:55:30;;;;;;;15.85;11.93;;;14.30;99.90;;;;;;1843650;77;21713;-72
2021/07/24 02:57:57;;;;;;;18.23;11.70;;;14.30;99.90;;;;;;1835457;77;21208;-71
2021/07/24 03:00:25;;;;;;;17.02;12.58;;;14.20;99.90;;;;;;1852845;77;21106;-71
2021/07/24 03:02:52;;;;;;;21.10;12.33;;;14.30;99.90;;;;;;1866633;77;21075;-72
2021/07/24 03:05:20;;;;;;;18.10;12.35;;;14.30;99.90;;;;;;1866424;77;21080;-72
2021/07/24 03:07:47;;;;;;;18.57;12.55;;;14.30;99.90;;;;;;1866249;76;21173;-71
2021/07/24 03:10:15;;;;;;;20.88;13.45;;;14.20;99.90;;;;;;1866444;76;21647;-71
2021/07/24 03:12:42;;;;;;;19.42;14.00;;;14.20;99.90;;;;;;1838093;77;21097;-72
2021/07/24 03:15:10;;;;;;;20.72;14.38;;;14.20;99.90;;;;;;1862130;77;21070;-71
2021/07/24 03:17:38;;;;;;;20.45;13.93;;;14.20;99.90;;;;;;1866493;76;21118;-72
2021/07/24 03:20:06;;;;;;;18.30;13.50;;;14.20;99.90;;;;;;1866539;77;21164;-72
2021/07/24 03:22:34;;;;;;;21.30;13.95;;;14.20;99.90;;;;;;1860666;77;21039;-72
2021/07/24 03:25:02;;;;;;;21.12;14.47;;;14.20;99.90;;;;;;1866335;77;21039;-72
2021/07/24 03:27:29;;;;;;;20.85;14.50;;;14.20;99.90;;;;;;1862264;76;21044;-71
2021/07/24 03:29:57;;;;;;;21.00;15.58;;;14.20;99.90;;;;;;1836165;78;21033;-71
2021/07/24 03:32:24;;;;;;;23.83;15.78;;;14.20;99.90;;;;;;1836473;78;21056;-71
2021/07/24 03:34:52;;;;;;;21.93;15.53;;;14.20;99.90;;;;;;1837168;76;21042;-71
2021/07/24 03:37:23;;;;;;;22.70;15.53;;;14.20;99.90;;;;;;1839623;77;21059;-71
2021/07/24 03:39:48;;;;;;;26.07;16.12;;;14.10;99.90;;;;;;1865736;77;21102;-71
2021/07/24 03:42:16;;;;;;;25.50;15.65;;;14.20;99.90;;;;;;1852114;77;21703;-71
2021/07/24 03:44:43;;;;;;;22.27;15.72;;;14.10;99.90;;;;;;1835621;77;21026;-71
2021/07/24 03:47:32;;;;;;;28.20;16.77;;;14.10;99.90;;;;;;1835581;78;21629;-70
2021/07/24 03:50:00;;;;;;;25.15;16.32;;;14.10;99.90;;;;;;1863282;77;21090;-76
2021/07/24 03:52:27;;;;;;;26.30;16.77;;;14.20;99.90;;;;;;1848654;76;21090;-76
2021/07/24 03:54:55;;;;;;;26.55;16.75;;;14.20;99.90;;;;;;1857196;76;21180;-76
2021/07/24 03:57:22;;;;;;;23.65;16.30;;;14.20;99.90;;;;;;1885120;74;21088;-76
2021/07/24 03:59:50;;;;;;;23.80;16.62;;;14.20;99.90;;;;;;1929749;74;21018;-77
2021/07/24 04:02:23;;;;;;;23.47;16.50;;;14.30;99.90;;;;;;1937582;74;21101;-77
2021/07/24 04:04:50;;;;;;;23.60;16.42;;;14.20;99.90;;;;;;1937305;74;21095;-76
2021/07/24 04:07:15;;;;;;;24.43;16.85;;;14.20;99.90;;;;;;1937427;73;21166;-79
2021/07/24 04:09:43;;;;;;;23.25;17.20;;;14.30;99.90;;;;;;1927297;74;21108;-77
2021/07/24 04:12:11;;;;;;;24.10;16.23;;;14.20;99.90;;;;;;1908501;75;21035;-77
2021/07/24 04:14:39;;;;;;;26.52;16.23;;;14.30;99.90;;;;;;1912855;75;21077;-76
2021/07/24 04:17:07;;;;;;;24.43;16.75;;;14.30;99.90;;;;;;1912778;75;21082;-76
2021/07/24 04:19:35;;;;;;;22.60;15.40;;;14.30;99.90;;;;;;1912643;74;22108;-76
2021/07/24 04:22:03;;;;;;;22.75;15.50;;;14.30;99.90;;;;;;1912873;75;21085;-76
2021/07/24 04:24:30;;;;;;;27.00;17.27;;;14.30;99.90;;;;;;1900425;74;21031;-77
2021/07/24 04:26:58;;;;;;;25.23;15.38;;;14.30;99.90;;;;;;1888362;76;21074;-76
2021/07/24 04:29:25;;;;;;;24.27;16.60;;;14.30;99.90;;;;;;1892866;76;21133;-76
2021/07/24 04:31:55;;;;;;;24.92;16.42;;;14.40;99.90;;;;;;1893322;76;21102;-76
2021/07/24 04:34:22;;;;;;;26.90;15.88;;;14.40;99.90;;;;;;1892940;75;21126;-76
2021/07/24 04:36:49;;;;;;;24.55;16.80;;;14.40;99.90;;;;;;1890246;75;21104;-76
2021/07/24 04:39:17;;;;;;;24.50;17.17;;;14.40;99.90;;;;;;1887806;75;21104;-77
2021/07/24 04:41:44;;;;;;;22.93;15.65;;;14.40;99.90;;;;;;1912131;74;21137;-77
2021/07/24 04:44:12;;;;;;;22.60;16.17;;;14.40;99.90;;;;;;1888584;76;21178;-77
2021/07/24 04:46:39;;;;;;;22.85;16.20;;;14.50;99.90;;;;;;1888356;76;21139;-77
2021/07/24 04:49:07;;;;;;;27.80;15.68;;;14.60;99.90;;;;;;1888403;74;21089;-76
2021/07/24 04:51:34;;;;;;;27.85;16.15;;;14.60;99.90;;;;;;1889343;74;21081;-77
2021/07/24 04:54:04;;;;;;;27.70;17.25;;;14.60;99.90;;;;;;1885007;75;21077;-77
2021/07/24 04:56:37;;;;;;;28.05;16.57;;;14.60;99.90;;;;;;1864663;76;21175;-76
2021/07/24 04:59:07;;;;;;;26.15;17.00;;;14.60;99.90;;;;;;1888043;75;21155;-75
2021/07/24 05:01:35;;;;;;;30.08;16.65;;;14.60;99.90;;;;;;1887175;76;21143;-78
2021/07/24 05:04:03;;;;;;;24.92;16.35;;;14.60;99.90;;;;;;1852975;77;21120;-76
2021/07/24 05:06:31;;;;;;;27.30;17.02;;;14.70;99.90;;;;;;1883587;74;21018;-75
2021/07/24 05:08:59;;;;;;;23.85;15.43;;;14.70;99.90;;;;;;1898473;74;21083;-75
2021/07/24 05:11:27;;;;;;;26.05;15.32;;;14.80;99.90;;;;;;1892780;76;21043;-75
2021/07/24 05:13:54;;;;;;;23.90;16.35;;;14.90;99.90;;;;;;1893820;76;21085;-76
2021/07/24 05:16:22;;;;;;;25.60;16.12;;;15.00;99.90;;;;;;1893628;76;21594;-76
2021/07/24 05:18:49;;;;;;;29.63;15.85;;;15.00;99.90;;;;;;1893569;74;21055;-75
2021/07/24 05:21:18;;;;;;;21.50;14.95;;;15.10;99.90;;;;;;1893888;76;21038;-75
2021/07/24 05:23:46;;;;;;;23.12;14.63;;;15.10;99.90;;;;;;1910452;74;21615;-75
2021/07/24 05:26:16;;;;;;;22.00;14.75;;;15.10;99.90;;;;;;1889134;76;21096;-76
2021/07/24 05:28:44;;;;;;;20.08;14.50;;;15.20;99.90;;;;;;1888955;75;21060;-75
2021/07/24 05:31:16;;;;;;;19.75;14.03;;;15.20;99.90;;;;;;1901293;75;21383;-76
2021/07/24 05:33:44;;;;;;;24.67;14.85;;;15.20;99.90;;;;;;1890037;75;21103;-76
2021/07/24 05:36:12;;;;;;;21.68;14.50;;;15.30;99.90;;;;;;1886370;76;21026;-75
2021/07/24 05:38:40;;;;;;;22.13;14.47;;;15.30;99.90;;;;;;1886664;74;21061;-75
2021/07/24 05:41:07;;;;;;;21.70;14.23;;;15.40;99.90;;;;;;1906777;74;21122;-76
2021/07/24 05:43:34;;;;;;;20.62;13.55;;;15.40;99.90;;;;;;1887744;76;21097;-76
2021/07/24 05:46:02;;;;;;;20.27;13.03;;;15.50;99.90;;;;;;1887914;76;21027;-76
2021/07/24 05:48:30;;;;;;;19.37;13.40;;;15.60;99.90;;;;;;1889900;74;21198;-76
2021/07/24 05:50:57;;;;;;;23.38;12.90;;;15.60;99.90;;;;;;1888070;75;21061;-76
2021/07/24 05:53:25;;;;;;;19.37;12.70;;;15.70;99.90;;;;;;1888211;76;21632;-76
2021/07/24 05:55:52;;;;;;;19.62;13.98;;;15.70;99.90;;;;;;1888434;76;21108;-76
2021/07/24 05:58:20;;;;;;;20.65;13.50;;;15.80;99.90;;;;;;1885794;75;21081;-75
2021/07/24 06:00:47;;;;;;;23.32;14.78;;;15.80;99.90;;;;;;1890728;75;21123;-76
2021/07/24 06:03:15;;;;;;;18.80;13.40;;;15.90;99.90;;;;;;1918361;74;21229;-75
2021/07/24 06:05:42;;;;;;;24.55;13.95;;;16.00;99.90;;;;;;1889294;74;21085;-76
2021/07/24 06:08:10;;;;;;;21.20;13.30;;;16.00;99.90;;;;;;1888351;74;21073;-75
2021/07/24 06:10:37;;;;;;;22.60;14.65;;;16.10;99.90;;;;;;1889381;76;21109;-76
2021/07/24 06:13:05;;;;;;;20.97;13.20;;;16.10;99.90;;;;;;1893066;76;21533;-76
2021/07/24 06:15:32;;;;;;;23.83;14.00;;;16.20;99.90;;;;;;1857262;75;21074;-75
2021/07/24 06:18:00;;;;;;;21.52;13.62;;;16.40;99.90;;;;;;1852514;76;21062;-76
2021/07/24 06:20:27;;;;;;;22.48;14.50;;;16.40;99.90;;;;;;1866582;74;21477;-76
2021/07/24 06:22:55;;;;;;;22.07;13.22;;;16.50;99.90;;;;;;1889061;74;21066;-75
2021/07/24 06:25:22;;;;;;;20.25;14.45;;;16.50;99.90;;;;;;1888644;76;21074;-76
2021/07/24 06:27:50;;;;;;;19.25;13.58;;;16.70;99.90;;;;;;1888629;75;21496;-76
2021/07/24 06:30:17;;;;;;;22.37;13.75;;;16.70;99.90;;;;;;1869380;74;21078;-76
2021/07/24 06:32:45;;;;;;;22.52;14.93;;;16.80;99.90;;;;;;1852525;77;21093;-76
2021/07/24 06:35:12;;;;;;;21.80;14.25;;;16.90;99.90;;;;;;1852603;77;21105;-76
2021/07/24 06:37:40;;;;;;;26.48;14.20;;;17.00;99.90;;;;;;1902112;74;21549;-76
2021/07/24 06:40:08;;;;;;;24.63;14.63;;;17.10;99.90;;;;;;1919150;74;21089;-77
2021/07/24 06:42:38;;;;;;;25.20;13.90;;;17.20;99.90;;;;;;1880900;76;21112;-76
2021/07/24 06:45:06;;;;;;;22.50;13.22;;;17.20;99.90;;;;;;1887295;74;21082;-75
2021/07/24 06:47:33;;;;;;;24.23;15.50;;;17.30;99.90;;;;;;1897182;75;21580;-77
2021/07/24 06:50:01;;;;;;;28.15;15.90;;;17.40;99.90;;;;;;1896741;74;21101;-76
2021/07/24 06:52:28;;;;;;;21.62;14.50;;;17.50;99.90;;;;;;1897046;74;21029;-76
2021/07/24 06:54:56;;;;;;;27.62;15.00;;;17.50;99.90;;;;;;1936687;74;21513;-76
2021/07/24 06:57:23;;;;;;;22.02;14.87;;;17.70;99.90;;;;;;1935578;74;21062;-76
2021/07/24 06:59:51;;;;;;;25.05;14.58;;;17.70;99.90;;;;;;1923247;74;21066;-75
2021/07/24 07:02:18;;;;;;;21.90;14.70;;;17.80;99.90;;;;;;1894731;75;21445;-75
2021/07/24 07:04:46;;;;;;;22.82;14.33;;;17.90;99.90;;;;;;1892790;75;21178;-75
2021/07/24 07:07:14;;;;;;;22.05;13.15;;;17.90;99.90;;;;;;1892833;76;21119;-76
2021/07/24 07:09:41;;;;;;;19.45;13.58;;;18.00;99.90;;;;;;1892758;76;21376;-75
2021/07/24 07:12:09;;;;;;;27.75;13.83;;;18.10;99.90;;;;;;1894556;74;21093;-76
2021/07/24 07:14:36;;;;;;;23.90;13.30;;;18.30;99.90;;;;;;1887887;76;21163;-76
2021/07/24 07:17:04;;;;;;;21.97;12.68;;;18.30;99.90;;;;;;1886989;76;21078;-76
2021/07/24 07:19:31;;;;;;;25.08;12.80;;;18.30;99.90;;;;;;1872873;74;21103;-76
2021/07/24 07:21:59;;;;;;;19.67;11.30;;;18.40;99.90;;;;;;1887498;76;21102;-76
2021/07/24 07:24:26;;;;;;;15.53;11.68;;;18.50;99.90;;;;;;1887515;76;21576;-76
2021/07/24 07:26:54;;;;;;;25.55;12.75;;;18.60;99.90;;;;;;1872759;75;21116;-75
2021/07/24 07:29:21;;;;;;;22.35;10.82;;;18.60;99.90;;;;;;1902255;74;21448;-76
2021/07/24 07:31:49;;;;;;;21.65;11.10;;;18.70;99.90;;;;;;1889461;75;21531;-75
2021/07/24 07:34:16;;;;;;;20.95;10.75;;;18.70;99.90;;;;;;1887991;76;21097;-75
2021/07/24 07:36:45;;;;;;;27.48;11.03;;;18.70;99.90;;;;;;1888028;76;21109;-77
2021/07/24 07:39:12;;;;;;;18.62;10.25;;;18.80;99.90;;;;;;1888252;75;21211;-77
2021/07/24 07:41:40;;;;;;;18.20;10.38;;;18.90;99.90;;;;;;1889323;74;21109;-75
2021/07/24 07:44:08;;;;;;;21.45;10.00;;;19.00;99.90;;;;;;1888141;76;21644;-75
2021/07/24 07:46:35;;;;;;;19.55;11.03;;;19.10;99.90;;;;;;1866392;76;21602;-75
2021/07/24 07:49:03;;;;;;;18.35;10.48;;;19.10;99.90;;;;;;1869457;76;21112;-76
2021/07/24 07:51:30;;;;;;;12.80;8.95;;;19.10;99.90;;;;;;1888012;75;21132;-76
2021/07/24 07:53:58;;;;;;;16.35;9.28;;;19.20;99.90;;;;;;1889463;74;21622;-73
2021/07/24 07:56:25;;;;;;;15.75;8.73;;;19.20;99.90;;;;;;1888244;76;22080;-76
2021/07/24 07:58:53;;;;;;;17.75;9.28;;;19.20;99.90;;;;;;1888183;74;21112;-76
2021/07/24 08:01:20;;;;;;;16.00;8.58;;;19.20;99.90;;;;;;1879732;76;21089;-76
2021/07/24 08:03:48;;;;;;;16.25;9.30;;;19.30;99.90;;;;;;1866077;75;21084;-76
2021/07/24 08:06:16;;;;;;;17.98;8.75;;;19.40;99.90;;;;;;1888393;74;21139;-75
2021/07/24 08:08:43;;;;;;;19.23;9.40;;;19.50;99.90;;;;;;1899775;73;22227;-73
2021/07/24 08:11:11;;;;;;;17.50;8.63;;;19.60;99.90;;;;;;1909820;74;21029;-72
2021/07/24 08:13:38;;;;;;;15.43;8.35;;;19.60;99.90;;;;;;1922177;74;21057;-73
2021/07/24 08:16:17;;;;;;;12.88;7.45;;;19.70;99.90;;;;;;1907021;74;21664;-73
2021/07/24 08:18:45;;;;;;;13.93;7.60;;;19.70;99.90;;;;;;1883974;76;21205;-73
2021/07/24 08:21:12;;;;;;;12.60;7.67;;;19.80;99.90;;;;;;1856428;77;21102;-73
2021/07/24 08:23:40;;;;;;;15.80;7.72;;;19.80;99.90;;;;;;1872470;75;21128;-72
2021/07/24 08:26:07;;;;;;;11.65;6.95;;;19.90;99.90;;;;;;1888831;76;21500;-73
2021/07/24 08:28:35;;;;;;;19.80;7.62;;;20.00;99.90;;;;;;1888526;74;21191;-73
2021/07/24 08:31:02;;;;;;;10.70;6.65;;;20.00;99.90;;;;;;1888400;76;21104;-72
2021/07/24 08:33:30;;;;;;;14.58;6.50;;;20.00;99.90;;;;;;1888428;76;21511;-73
2021/07/24 08:35:57;;;;;;;10.95;7.25;;;20.10;99.90;;;;;;1877956;76;21516;-73
2021/07/24 08:38:25;;;;;;;15.63;6.70;;;20.10;99.90;;;;;;1899714;74;21587;-73
2021/07/24 08:40:52;;;;;;;15.03;6.05;;;20.30;99.90;;;;;;1915388;75;21096;-73
2021/07/24 08:43:20;;;;;;;12.85;6.22;;;20.30;99.90;;;;;;1915372;74;21096;-72
2021/07/24 08:45:48;;;;;;;13.30;6.90;;;20.40;99.90;;;;;;1915342;75;21168;-73
2021/07/24 08:48:16;;;;;;;15.05;6.78;;;20.50;99.90;;;;;;1914925;75;21645;-73
2021/07/24 08:50:45;;;;;;;10.45;6.15;;;20.60;99.90;;;;;;1915052;75;22193;-72
2021/07/24 08:53:15;;;;;;;15.68;6.87;;;20.70;99.90;;;;;;1899612;74;21547;-73
2021/07/24 08:55:43;;;;;;;13.20;6.90;;;20.70;99.90;;;;;;1923524;74;21043;-72
2021/07/24 08:58:13;;;;;;;11.95;6.80;;;20.80;99.90;;;;;;1936909;74;21094;-72
2021/07/24 09:00:44;;;;;;;8.68;5.45;;;20.80;99.90;;;;;;1936921;74;21070;-72
2021/07/24 09:03:14;;;;;;;10.53;6.17;;;21.00;99.90;;;;;;1937911;74;21035;-72
2021/07/24 09:05:44;;;;;;;8.95;5.65;;;21.00;99.90;;;;;;1895842;74;21034;-72
2021/07/24 09:08:13;;;;;;;16.23;5.92;;;21.10;99.90;;;;;;1899159;74;21114;-72
2021/07/24 09:10:42;;;;;;;13.85;5.92;;;21.10;99.90;;;;;;1886728;76;22099;-71
2021/07/24 09:13:09;;;;;;;12.45;5.53;;;21.20;99.90;;;;;;1886632;76;21114;-72
2021/07/24 09:15:37;;;;;;;12.88;5.97;;;21.30;99.90;;;;;;1886711;76;21087;-72
2021/07/24 09:18:04;;;;;;;10.38;5.45;;;21.50;99.90;;;;;;1886589;76;21113;-72
2021/07/24 09:20:33;;;;;;;9.18;5.20;;;21.50;99.90;;;;;;1886702;76;21470;-72
2021/07/24 09:23:20;;;;;;;9.55;5.95;;;21.60;99.90;;;;;;1888074;74;21084;-72
2021/07/24 09:25:48;;;;;;;12.50;5.80;;;21.60;99.90;;;;;;1897472;75;21127;-71
2021/07/24 09:28:15;;;;;;;11.00;5.55;;;21.70;99.90;;;;;;1897321;75;21598;-70
2021/07/24 09:30:43;;;;;;;13.15;5.60;;;21.70;99.90;;;;;;1897509;74;21087;-75
2021/07/24 09:33:16;;;;;;;10.70;5.62;;;21.80;99.90;;;;;;1888609;76;21127;-74
2021/07/24 09:35:45;;;;;;;12.05;5.60;;;21.80;99.90;;;;;;1888094;76;21155;-75
2021/07/24 09:38:16;;;;;;;11.55;6.17;;;22.00;99.90;;;;;;1898826;75;21194;-74
2021/07/24 09:40:46;;;;;;;9.73;5.00;;;22.00;99.90;;;;;;1899269;74;21198;-75
2021/07/24 09:43:33;;;;;;;13.62;5.65;;;22.00;99.90;;;;;;1895860;75;21684;-75
2021/07/24 09:46:17;;;;;;;11.53;6.17;;;22.20;99.90;;;;;;1901087;74;21123;-75
2021/07/24 09:48:49;;;;;;;10.43;6.12;;;22.20;99.90;;;;;;1886975;75;21070;-74
2021/07/24 09:51:17;;;;;;;;;;;22.30;99.90;;;;;;1890735;75;21144;-74
2021/07/24 09:53:46;;;;;;;14.83;5.92;;;22.40;99.90;;;;;;1885609;76;20201;-75
2021/07/24 09:56:15;;;;;;;11.18;5.92;;;22.50;99.90;;;;;;1886869;76;21609;-74
2021/07/24 09:58:44;;;;;;;12.73;6.33;;;22.50;99.90;;;;;;1887423;75;21278;-75
2021/07/24 10:01:15;;;;;;;9.48;6.00;;;22.50;99.90;;;;;;1908487;75;21155;-75
2021/07/24 10:03:47;;;;;;;15.05;6.40;;;22.60;99.90;;;;;;1909015;75;21206;-76
2021/07/24 10:06:16;;;;;;;10.32;5.42;;;22.70;99.90;;;;;;1908961;74;21583;-75
2021/07/24 10:08:47;;;;;;;13.25;6.22;;;22.60;99.90;;;;;;1890995;75;21112;-75
2021/07/24 10:11:14;;;;;;;9.73;6.37;;;22.80;99.90;;;;;;1887567;75;21174;-77
2021/07/24 10:13:44;;;;;;;11.73;5.67;;;22.90;99.90;;;;;;1877946;76;21182;-76
2021/07/24 10:16:13;;;;;;;8.45;5.37;;;23.00;99.90;;;;;;1889068;76;21144;-76
2021/07/24 10:18:42;;;;;;;13.78;5.55;;;23.10;99.90;;;;;;1888850;75;21663;-75
2021/07/24 10:21:10;;;;;;;8.83;5.87;;;23.00;99.90;;;;;;1888967;76;21014;-76
2021/07/24 10:23:37;;;;;;;11.33;5.75;;;23.10;99.90;;;;;;1888037;75;21035;-76
2021/07/24 10:26:17;;;;;;;10.48;6.05;;;23.20;99.90;;;;;;1888204;75;21010;-75
2021/07/24 10:28:53;;;;;;;8.23;6.15;;;23.20;99.90;;;;;;1894837;74;21065;-77
2021/07/24 10:31:45;;;;;;;12.23;6.42;;;23.30;99.90;;;;;;1910066;75;21006;-77
2021/07/24 10:34:14;;;;;;;11.10;6.35;;;23.40;99.90;;;;;;1902522;74;21014;-77
2021/07/24 10:36:43;;;;;;;10.95;6.20;;;23.40;99.90;;;;;;1920716;73;21143;-71
2021/07/24 10:39:19;;;;;;;13.35;5.95;;;23.60;99.90;;;;;;1906391;73;21544;-70
2021/07/24 10:41:48;;;;;;;11.88;6.45;;;23.70;99.90;;;;;;1862014;76;21167;-70
2021/07/24 10:44:38;;;;;;;12.45;6.37;;;23.60;99.90;;;;;;1895670;75;21113;-71
2021/07/24 10:47:08;;;;;;;15.28;5.72;;;23.80;99.90;;;;;;1863671;76;21599;-69
2021/07/24 10:49:39;;;;;;;13.55;6.17;;;23.80;99.90;;;;;;1883970;76;21387;-72
2021/07/24 10:52:10;;;;;;;10.48;6.47;;;23.90;99.90;;;;;;1884242;76;21125;-70
2021/07/24 10:55:04;;;;;;;10.78;5.85;;;24.00;99.90;;;;;;1893604;76;21528;-69
2021/07/24 10:57:53;;;;;;;13.05;6.42;;;24.10;99.90;;;;;;1861792;76;21093;-71
2021/07/24 11:00:22;;;;;;;15.32;6.15;;;24.10;99.90;;;;;;1881958;76;21223;-69
2021/07/24 11:02:51;;;;;;;17.23;6.35;;;24.20;99.90;;;;;;1920568;74;21041;-70
2021/07/24 11:05:25;;;;;;;9.73;5.97;;;24.10;99.90;;;;;;1921687;73;21519;-70
2021/07/24 11:07:54;;;;;;;11.85;6.17;;;24.10;99.90;;;;;;1921349;73;21107;-71
2021/07/24 11:10:22;;;;;;;7.30;5.25;;;24.10;99.90;;;;;;1921719;74;21014;-71
2021/07/24 11:12:50;;;;;;;10.90;5.95;;;24.20;99.90;;;;;;1906538;74;21073;-70
2021/07/24 11:15:23;;;;;;;15.65;5.80;;;24.20;99.90;;;;;;1895709;74;21064;-71
2021/07/24 11:18:23;;;;;;;12.75;6.00;;;24.20;99.90;;;;;;1899970;74;21080;-72
2021/07/24 11:20:51;;;;;;;8.98;5.72;;;24.20;99.90;;;;;;1922181;74;21356;-70
2021/07/24 11:23:23;;;;;;;11.38;5.92;;;24.40;99.90;;;;;;1922055;74;21156;-71
2021/07/24 11:25:52;;;;;;;15.55;6.37;;;24.50;99.90;;;;;;1910107;74;21721;-70
2021/07/24 11:28:23;;;;;;;14.00;6.35;;;24.60;99.90;;;;;;1906713;75;21109;-71
2021/07/24 11:31:02;;;;;;;14.25;7.42;;;24.60;99.90;;;;;;1911675;75;21171;-71
2021/07/24 11:33:30;;;;;;;17.80;6.72;;;24.70;99.90;;;;;;1911285;74;21113;-71
2021/07/24 11:36:09;;;;;;;10.82;5.90;;;24.70;99.90;;;;;;1909980;74;21510;-71
2021/07/24 11:38:37;;;;;;;10.75;6.03;;;24.80;99.90;;;;;;1921383;74;21088;-70
2021/07/24 11:41:07;;;;;;;11.50;6.12;;;24.80;99.90;;;;;;1896350;74;21073;-71
2021/07/24 11:43:37;;;;;;;14.45;6.35;;;24.90;99.90;;;;;;1895365;76;21100;-71
2021/07/24 11:46:07;;;;;;;16.00;6.30;;;25.00;99.90;;;;;;1895535;75;21237;-71
2021/07/24 11:48:37;;;;;;;14.93;5.80;;;25.00;99.90;;;;;;1895337;74;21077;-71
2021/07/24 11:51:08;;;;;;;11.80;6.00;;;25.00;99.90;;;;;;1902979;74;21711;-71
2021/07/24 11:53:36;;;;;;;12.90;6.85;;;25.00;99.90;;;;;;1907249;75;21132;-70
2021/07/24 11:56:10;;;;;;;7.67;6.15;;;25.00;99.90;;;;;;1895880;74;21133;-71
2021/07/24 11:58:35;;;;;;;10.85;6.45;;;25.10;99.90;;;;;;1906669;74;21114;-71
2021/07/24 12:01:03;;;;;;;16.20;6.60;;;25.20;99.90;;;;;;1910961;75;21087;-71
2021/07/24 12:03:31;;;;;;;10.28;6.30;;;25.20;99.90;;;;;;1920538;74;21162;-73
2021/07/24 12:06:10;;;;;;;12.05;6.60;;;25.20;99.90;;;;;;1921375;73;21578;-73
2021/07/24 12:08:40;;;;;;;10.03;6.45;;;25.20;99.90;;;;;;1905070;74;21127;-72
2021/07/24 12:11:18;;;;;;;10.15;7.45;;;25.30;99.90;;;;;;1893643;76;21007;-72
2021/07/24 12:13:46;;;;;;;11.95;6.47;;;25.30;99.90;;;;;;1893678;76;21075;-72
2021/07/24 12:16:17;;;;;;;11.93;7.17;;;25.50;99.90;;;;;;1893865;74;21042;-72
2021/07/24 12:18:47;;;;;;;10.98;7.03;;;25.50;99.90;;;;;;1893596;75;20995;-72
2021/07/24 12:21:17;;;;;;;13.25;6.75;;;25.70;99.90;;;;;;1893827;76;21595;-72
2021/07/24 12:23:58;;;;;;;10.13;6.75;;;25.80;99.90;;;;;;1895572;74;21029;-72
2021/07/24 12:26:33;;;;;;;12.00;6.97;;;25.80;99.90;;;;;;1922590;74;21139;-72
2021/07/24 12:29:03;;;;;;;11.63;6.22;;;25.70;99.90;;;;;;1912192;74;21502;-72
2021/07/24 12:31:33;;;;;;;11.85;7.00;;;25.90;99.90;;;;;;1907326;75;21109;-72
2021/07/24 12:34:05;;;;;;;11.43;7.85;;;25.90;99.90;;;;;;1911919;75;21009;-72
2021/07/24 12:36:32;;;;;;;10.00;6.90;;;25.90;99.90;;;;;;1909951;75;21138;-72
2021/07/24 12:39:02;;;;;;;9.60;7.17;;;26.00;99.90;;;;;;1908267;75;21156;-72
2021/07/24 12:41:31;;;;;;;15.72;7.35;;;26.20;99.90;;;;;;1899528;74;21095;-72
2021/07/24 12:44:09;;;;;;;18.52;7.10;;;26.10;99.90;;;;;;1911105;74;21083;-72